Time,TemperatureF,DewpointF,PressureIn,WindDirection,WindDirectionDegrees,WindSpeedMPH,WindSpeedGustMPH,Humidity,HourlyPrecipIn,Conditions,Clouds,dailyrainin,SoftwareType,DateUTC
2013-09-03 01:00:00,57.0,-99.9,-100.00,North,-999,-999.0,-999.0,-999,-99.99,,,0.01,,2013-09-03 08:00:00,
2013-09-03 01:52:00,57.0,-99.9,-100.00,North,-999,-999.0,-999.0,-999,-99.99,,,0.01,,2013-09-03 08:52:00,
2013-09-03 02:00:00,56.0,44.0,-100.00,SSE,147,0.0,1.0,65,-99.99,,,0.01,,2013-09-03 09:00:00,
2013-09-03 02:53:00,56.0,44.0,-100.00,SSE,147,0.0,1.0,65,-99.99,,,0.01,,2013-09-03 09:53:00,
2013-09-03 03:00:00,56.0,45.0,-100.00,WNW,289,0.0,1.0,67,-99.99,,,0.01,,2013-09-03 10:00:00,
2013-09-03 03:53:00,56.0,45.0,-100.00,WNW,289,0.0,1.0,67,-99.99,,,0.01,,2013-09-03 10:53:00,
2013-09-03 04:00:00,57.0,44.0,-100.00,NW,319,0.0,2.0,63,-99.99,,,0.00,,2013-09-03 11:00:00,
2013-09-03 04:52:00,57.0,44.0,-100.00,NW,319,0.0,2.0,63,-99.99,,,0.00,,2013-09-03 11:52:00,
2013-09-03 05:00:00,56.0,44.0,-100.00,WNW,282,0.0,1.0,65,-99.99,,,-99.99,,2013-09-03 12:00:00,
2013-09-03 05:52:00,56.0,44.0,-100.00,WNW,282,0.0,1.0,65,-99.99,,,-99.99,,2013-09-03 12:52:00,
2013-09-03 06:00:00,54.0,45.0,-100.00,West,278,0.0,0.0,72,-99.99,,,0.00,,2013-09-03 13:00:00,
2013-09-03 06:52:00,54.0,45.0,-100.00,West,278,0.0,0.0,72,-99.99,,,0.00,,2013-09-03 13:52:00,
2013-09-03 10:00:00,61.0,50.0,-100.00,North,-999,-999.0,-999.0,69,-99.99,,,0.00,,2013-09-03 17:00:00,
2013-09-03 10:52:00,61.0,50.0,-100.00,North,-999,-999.0,-999.0,69,-99.99,,,0.00,,2013-09-03 17:52:00,
2013-09-03 12:00:00,62.0,50.0,-100.00,SSE,150,2.0,4.0,65,-99.99,,,0.01,,2013-09-03 19:00:00,
2013-09-03 12:52:00,62.0,50.0,-100.00,SSE,150,2.0,4.0,65,-99.99,,,0.01,,2013-09-03 19:52:00,
2013-09-03 13:00:00,66.0,49.0,-100.00,ENE,75,2.0,5.0,55,-99.99,,,0.00,,2013-09-03 20:00:00,
2013-09-03 13:52:00,66.0,49.0,-100.00,ENE,75,2.0,5.0,55,-99.99,,,0.00,,2013-09-03 20:52:00,
2013-09-03 14:00:00,66.0,44.0,-100.00,North,-999,-999.0,-999.0,45,-99.99,,,0.00,,2013-09-03 21:00:00,
2013-09-03 14:54:00,66.0,44.0,-100.00,North,-999,-999.0,-999.0,45,-99.99,,,0.00,,2013-09-03 21:54:00,
2013-09-03 16:00:00,67.0,39.0,-100.00,ENE,66,3.0,5.0,36,-99.99,,,0.01,,2013-09-03 23:00:00,
2013-09-03 16:54:00,67.0,39.0,-100.00,ENE,66,3.0,5.0,36,-99.99,,,0.01,,2013-09-03 23:54:00,
2013-09-03 21:00:00,58.0,40.0,-100.00,SE,127,1.0,2.0,52,-99.99,,,0.01,,2013-09-04 04:00:00,
2013-09-03 21:54:00,58.0,40.0,-100.00,SE,127,1.0,2.0,52,-99.99,,,0.01,,2013-09-04 04:54:00,
2013-09-03 22:00:00,57.0,43.0,-100.00,South,181,1.0,2.0,60,-99.99,,,0.00,,2013-09-04 05:00:00,
2013-09-03 22:53:00,57.0,43.0,-100.00,South,181,1.0,2.0,60,-99.99,,,0.00,,2013-09-04 05:53:00,